Time;durP1;ratioP1;P1;durP2;ratioP2;P2;SDS_P1;SDS_P2;PMS_P1;PMS_P2;Temp;Humidity;BMP_temperature;BMP_pressure;BME280_temperature;BME280_humidity;BME280_pressure;Samples;Min_cycle;Max_cycle;Signal;HPM_P1;HPM_P2
2023/08/05 00:00:54;;;;;;;;;;;;;;;20.11;57.74;100657.00;4981449;28;6941;-73
2023/08/05 00:03:19;;;;;;;;;;;;;;;20.09;57.01;100649.22;4971956;28;6952;-73
2023/08/05 00:05:45;;;;;;;;;;;;;;;20.08;57.61;100657.84;4998872;28;6788;-73
2023/08/05 00:08:10;;;;;;;;;;;;;;;20.08;57.63;100660.44;5005595;28;7146;-76
2023/08/05 00:10:36;;;;;;;;;;;;;;;20.08;57.23;100662.19;4985658;28;7234;-74
2023/08/05 00:13:02;;;;;;;;;;;;;;;20.04;57.12;100656.06;4996885;28;7067;-75
2023/08/05 00:15:27;;;;;;;;;;;;;;;20.00;57.45;100654.28;5010554;28;7174;-74
2023/08/05 00:17:53;;;;;;;;;;;;;;;19.97;57.33;100652.53;4978788;28;7214;-73
2023/08/05 00:20:19;;;;;;;;;;;;;;;19.94;57.41;100642.09;4993694;28;6923;-74
2023/08/05 00:22:44;;;;;;;;;;;;;;;19.92;57.57;100646.34;4967671;28;7157;-75
2023/08/05 00:25:10;;;;;;;;;;;;;;;19.90;57.28;100642.00;5006649;28;6787;-72
2023/08/05 00:27:35;;;;;;;;;;;;;;;19.87;57.38;100636.72;4993627;28;6784;-71
2023/08/05 00:30:01;;;;;;;;;;;;;;;19.83;57.70;100641.00;4997285;28;6776;-71
2023/08/05 00:32:27;;;;;;;;;;;;;;;19.79;57.71;100637.50;4989987;28;6772;-72
2023/08/05 00:34:52;;;;;;;;;;;;;;;19.78;57.47;100633.16;4981468;28;7039;-71
2023/08/05 00:37:18;;;;;;;;;;;;;;;19.77;58.04;100625.34;5002131;28;6792;-71
2023/08/05 00:39:43;;;;;;;;;;;;;;;19.76;57.94;100621.84;4993768;28;6787;-71
2023/08/05 00:42:09;;;;;;;;;;;;;;;19.76;58.14;100627.06;4992262;28;6942;-72
2023/08/05 00:44:34;;;;;;;;;;;;;;;19.75;57.90;100625.31;4999557;28;6953;-72
2023/08/05 00:47:00;;;;;;;;;;;;;;;19.75;58.08;100625.31;4993482;28;6804;-71
2023/08/05 00:49:25;;;;;;;;;;;;;;;19.74;58.55;100622.69;4982394;28;6800;-72
2023/08/05 00:51:52;;;;;;;;;;;;;;;19.75;58.13;100625.31;4992798;28;6787;-71
2023/08/05 00:54:18;;;;;;;;;;;;;;;19.75;58.31;100617.50;4975050;28;7009;-71
2023/08/05 00:56:45;;;;;;;;;;;;;;;19.74;58.05;100613.16;4997569;28;6872;-71
2023/08/05 00:59:12;;;;;;;;;;;;;;;19.75;58.50;100609.72;4992579;28;7033;-72
2023/08/05 01:01:37;;;;;;;;;;;;;;;19.76;58.21;100610.59;4994083;28;6808;-72
2023/08/05 01:04:03;;;;;;;;;;;;;;;19.74;58.30;100607.97;4991957;28;6795;-72
2023/08/05 01:06:31;;;;;;;;;;;;;;;19.70;58.65;100607.03;4991708;28;6787;-71
2023/08/05 01:08:57;;;;;;;;;;;;;;;19.64;58.04;100612.16;5002173;28;7294;-72
2023/08/05 01:11:23;;;;;;;;;;;;;;;19.59;58.37;100608.63;4997458;28;7086;-71
2023/08/05 01:13:48;;;;;;;;;;;;;;;19.52;58.60;100607.69;4984951;28;8827;-71
2023/08/05 01:16:14;;;;;;;;;;;;;;;19.42;58.48;100601.44;4995702;28;7262;-71
2023/08/05 01:18:40;;;;;;;;;;;;;;;19.31;58.07;100600.44;4990262;28;6931;-70
2023/08/05 01:21:19;;;;;;;;;;;;;;;19.18;58.49;100591.56;4990518;28;7195;-72
2023/08/05 01:24:14;;;;;;;;;;;;;;;19.04;58.75;100593.94;4979779;28;7001;-71
2023/08/05 01:26:40;;;;;;;;;;;;;;;18.91;58.79;100595.41;4994537;28;6965;-71
2023/08/05 01:29:06;;;;;;;;;;;;;;;18.81;58.92;100597.00;4992805;28;7139;-71
2023/08/05 01:31:32;;;;;;;;;;;;;;;18.70;58.35;100590.75;5000042;28;7506;-72
2023/08/05 01:33:58;;;;;;;;;;;;;;;18.60;58.62;100593.19;4999017;28;7162;-71
2023/08/05 01:36:23;;;;;;;;;;;;;;;18.50;58.84;100593.88;4983664;28;8496;-71
2023/08/05 01:38:49;;;;;;;;;;;;;;;18.42;59.09;100593.72;4995347;28;6792;-70
2023/08/05 01:41:15;;;;;;;;;;;;;;;18.34;59.57;100590.09;4998720;28;6928;-71
2023/08/05 01:43:41;;;;;;;;;;;;;;;18.27;59.69;100593.44;4997489;28;7197;-70
2023/08/05 01:46:06;;;;;;;;;;;;;;;18.20;59.60;100594.16;4996908;28;7134;-71
2023/08/05 01:48:32;;;;;;;;;;;;;;;18.12;59.67;100592.28;5012714;28;6792;-72
2023/08/05 01:50:57;;;;;;;;;;;;;;;18.06;60.22;100596.47;5003843;28;7025;-71
2023/08/05 01:53:22;;;;;;;;;;;;;;;18.00;60.19;100594.59;4986744;28;6973;-70
2023/08/05 01:55:48;;;;;;;;;;;;;;;17.95;60.58;100591.91;5004737;28;7257;-71
2023/08/05 01:58:13;;;;;;;;;;;;;;;17.90;61.31;100591.81;4997692;28;6795;-71
2023/08/05 02:00:39;;;;;;;;;;;;;;;17.88;60.97;100585.72;5000348;28;6875;-70
2023/08/05 02:03:04;;;;;;;;;;;;;;;17.84;60.89;100576.13;5002457;28;7225;-70
2023/08/05 02:05:30;;;;;;;;;;;;;;;17.80;61.10;100574.31;4996508;28;6776;-71
2023/08/05 02:07:55;;;;;;;;;;;;;;;17.76;60.74;100580.25;4993217;28;6827;-70
2023/08/05 02:10:21;;;;;;;;;;;;;;;17.71;61.22;100587.06;5001371;28;6958;-71
2023/08/05 02:12:47;;;;;;;;;;;;;;;17.67;61.37;100580.06;4991537;28;6935;-70
2023/08/05 02:15:12;;;;;;;;;;;;;;;17.63;61.13;100585.19;4994322;28;6784;-71
2023/08/05 02:17:38;;;;;;;;;;;;;;;17.60;61.62;100590.31;4996907;28;6963;-71
2023/08/05 02:20:04;;;;;;;;;;;;;;;17.58;61.56;100589.41;4998211;28;7193;-71
2023/08/05 02:22:30;;;;;;;;;;;;;;;17.56;61.65;100593.66;4994876;28;7251;-74
2023/08/05 02:24:55;;;;;;;;;;;;;;;17.54;61.64;100592.75;4994583;28;6838;-73
2023/08/05 02:27:20;;;;;;;;;;;;;;;17.51;62.24;100589.22;5014188;28;7075;-73
2023/08/05 02:29:46;;;;;;;;;;;;;;;17.48;62.17;100590.03;5006547;28;6946;-72
2023/08/05 02:32:11;;;;;;;;;;;;;;;17.47;62.08;100590.84;4997108;28;6788;-73
2023/08/05 02:34:37;;;;;;;;;;;;;;;17.45;62.52;100593.44;4996844;28;6984;-74
2023/08/05 02:37:02;;;;;;;;;;;;;;;17.44;62.26;100595.97;5007247;28;6792;-74
2023/08/05 02:39:28;;;;;;;;;;;;;;;17.42;61.83;100597.66;4993755;28;8545;-75
2023/08/05 02:41:53;;;;;;;;;;;;;;;17.40;62.29;100592.44;5014349;28;6975;-74
2023/08/05 02:44:19;;;;;;;;;;;;;;;17.38;62.51;100594.13;4998665;28;6792;-74
2023/08/05 02:46:44;;;;;;;;;;;;;;;17.36;62.09;100590.63;4995203;28;6843;-73
2023/08/05 02:49:10;;;;;;;;;;;;;;;17.35;62.25;100589.75;4996281;28;6795;-74
2023/08/05 02:51:36;;;;;;;;;;;;;;;17.34;62.67;100593.19;4998164;28;7264;-72
2023/08/05 02:54:02;;;;;;;;;;;;;;;17.33;62.05;100586.25;5000721;28;6836;-74
2023/08/05 02:56:27;;;;;;;;;;;;;;;17.32;62.36;100574.13;4992929;28;6942;-74
2023/08/05 02:58:53;;;;;;;;;;;;;;;17.30;62.74;100575.81;4995605;28;6780;-74
2023/08/05 03:01:19;;;;;;;;;;;;;;;17.29;62.15;100574.06;4993288;28;6852;-74
2023/08/05 03:03:44;;;;;;;;;;;;;;;17.27;61.93;100569.69;4995184;28;6895;-74
2023/08/05 03:06:10;;;;;;;;;;;;;;;17.26;62.46;100571.41;4982904;28;6883;-73
2023/08/05 03:08:35;;;;;;;;;;;;;;;17.24;62.46;100565.31;4995816;28;7122;-73
2023/08/05 03:11:01;;;;;;;;;;;;;;;17.24;62.46;100565.31;4993739;28;6907;-74
2023/08/05 03:13:27;;;;;;;;;;;;;;;17.24;62.54;100557.53;4993524;28;6800;-75
2023/08/05 03:15:53;;;;;;;;;;;;;;;17.25;63.31;100556.69;4997912;28;7136;-74
2023/08/05 03:18:20;;;;;;;;;;;;;;;17.26;63.29;100553.25;4993054;28;6795;-72
2023/08/05 03:20:46;;;;;;;;;;;;;;;17.25;63.41;100546.34;4996444;28;6830;-73
2023/08/05 03:23:12;;;;;;;;;;;;;;;17.24;63.81;100541.13;4992053;28;7227;-73
2023/08/05 03:25:37;;;;;;;;;;;;;;;17.23;63.14;100545.44;5008381;28;6776;-73
2023/08/05 03:28:03;;;;;;;;;;;;;;;17.24;62.85;100543.69;4989890;28;6800;-73
2023/08/05 03:30:28;;;;;;;;;;;;;;;17.23;62.94;100540.25;5006431;28;6950;-73
2023/08/05 03:32:54;;;;;;;;;;;;;;;17.21;62.77;100532.44;4996889;28;6776;-74
2023/08/05 03:35:20;;;;;;;;;;;;;;;17.19;63.22;100538.41;4992035;28;6844;-74
2023/08/05 03:37:46;;;;;;;;;;;;;;;17.17;63.06;100545.28;4995913;28;6799;-74
2023/08/05 03:40:12;;;;;;;;;;;;;;;17.14;62.69;100542.63;4993806;28;6931;-74
2023/08/05 03:42:38;;;;;;;;;;;;;;;17.14;62.52;100540.94;4984170;28;6902;-72
2023/08/05 03:45:04;;;;;;;;;;;;;;;17.13;62.83;100533.97;4997642;28;7285;-74
2023/08/05 03:47:30;;;;;;;;;;;;;;;17.12;62.89;100542.59;5008080;28;6884;-75
2023/08/05 03:49:55;;;;;;;;;;;;;;;17.13;63.29;100540.88;4997616;28;6775;-74
2023/08/05 03:52:21;;;;;;;;;;;;;;;17.12;63.15;100545.16;4991424;28;7229;-73
2023/08/05 03:54:46;;;;;;;;;;;;;;;17.14;63.47;100533.16;4998023;28;6934;-75
2023/08/05 03:57:12;;;;;;;;;;;;;;;17.14;63.35;100537.44;4996964;28;6784;-74
2023/08/05 03:59:40;;;;;;;;;;;;;;;17.18;63.76;100536.66;4990859;28;6839;-72
2023/08/05 04:02:05;;;;;;;;;;;;;;;17.19;63.62;100538.41;4988520;28;6987;-74
2023/08/05 04:04:31;;;;;;;;;;;;;;;17.20;63.96;100540.19;4993054;28;7292;-73
2023/08/05 04:06:56;;;;;;;;;;;;;;;17.22;63.56;100535.91;4997903;28;6915;-74
2023/08/05 04:09:22;;;;;;;;;;;;;;;17.24;63.70;100523.88;4994264;28;6955;-75
2023/08/05 04:11:49;;;;;;;;;;;;;;;17.25;64.05;100528.22;4995403;28;6978;-75
2023/08/05 04:14:20;;;;;;;;;;;;;;;17.27;63.68;100517.88;4995458;28;6982;-72
2023/08/05 04:16:47;;;;;;;;;;;;;;;17.29;64.13;100511.91;4983507;28;7453;-74
2023/08/05 04:19:16;;;;;;;;;;;;;;;17.29;64.24;100504.16;4989475;28;6955;-74
2023/08/05 04:21:46;;;;;;;;;;;;;;;17.31;64.07;100507.63;4993227;28;7241;-72
2023/08/05 04:24:13;;;;;;;;;;;;;;;17.32;64.36;100500.72;4980048;28;6983;-72
2023/08/05 04:26:40;;;;;;;;;;;;;;;17.33;64.41;100499.88;4994282;28;6796;-74
2023/08/05 04:29:05;;;;;;;;;;;;;;;17.35;64.03;100491.31;4996407;28;7002;-73
2023/08/05 04:31:31;;;;;;;;;;;;;;;17.42;64.83;100488.84;4983471;28;7368;-72
2023/08/05 04:33:57;;;;;;;;;;;;;;;17.50;65.22;100495.06;4973647;28;7086;-73
2023/08/05 04:36:22;;;;;;;;;;;;;;;17.60;65.23;100497.00;4986666;28;7837;-73
2023/08/05 04:38:47;;;;;;;;;;;;;;;17.71;64.52;100498.94;4992545;28;7352;-73
2023/08/05 04:41:13;;;;;;;;;;;;;;;17.80;65.10;100499.13;4993191;28;6819;-73
2023/08/05 04:43:38;;;;;;;;;;;;;;;17.91;64.86;100501.91;4981146;28;7111;-74
2023/08/05 04:46:04;;;;;;;;;;;;;;;17.98;65.18;100505.53;4992338;28;7081;-73
2023/08/05 04:48:29;;;;;;;;;;;;;;;18.08;64.91;100488.44;4984487;28;6856;-72
2023/08/05 04:50:55;;;;;;;;;;;;;;;18.20;65.25;100475.69;4988926;28;7302;-73
2023/08/05 04:53:21;;;;;;;;;;;;;;;18.32;65.16;100472.44;4987193;28;6854;-72
2023/08/05 04:55:46;;;;;;;;;;;;;;;18.40;64.38;100470.84;4978037;28;6962;-73
2023/08/05 04:58:12;;;;;;;;;;;;;;;18.44;64.00;100464.84;4990475;28;6811;-73
2023/08/05 05:00:38;;;;;;;;;;;;;;;18.47;64.33;100453.66;4983991;28;7141;-73
2023/08/05 05:03:06;;;;;;;;;;;;;;;18.50;63.80;100455.44;4993232;28;7511;-73
2023/08/05 05:05:33;;;;;;;;;;;;;;;18.53;63.69;100446.00;5005630;28;6962;-74
2023/08/05 05:07:59;;;;;;;;;;;;;;;18.54;62.82;100457.22;4988967;28;6815;-73
2023/08/05 05:10:25;;;;;;;;;;;;;;;18.49;62.78;100459.75;4992670;28;6803;-73
2023/08/05 05:12:50;;;;;;;;;;;;;;;18.49;63.37;100451.09;4991701;28;6783;-73
2023/08/05 05:15:16;;;;;;;;;;;;;;;18.54;63.60;100454.63;4994170;28;7407;-72
2023/08/05 05:17:41;;;;;;;;;;;;;;;18.63;63.70;100459.13;4999085;28;7303;-73
2023/08/05 05:20:07;;;;;;;;;;;;;;;18.72;64.06;100449.72;4999161;28;6870;-73
2023/08/05 05:22:33;;;;;;;;;;;;;;;18.91;64.35;100437.03;4982345;28;6960;-73
2023/08/05 05:24:58;;;;;;;;;;;;;;;19.14;64.82;100433.91;4982154;28;7213;-72
2023/08/05 05:27:24;;;;;;;;;;;;;;;19.40;64.61;100435.94;4997818;28;6972;-72
2023/08/05 05:29:50;;;;;;;;;;;;;;;19.61;64.16;100439.69;5013201;28;6825;-72
2023/08/05 05:32:15;;;;;;;;;;;;;;;19.77;63.81;100444.19;5000466;28;7164;-72
2023/08/05 05:34:41;;;;;;;;;;;;;;;19.92;63.60;100447.81;4996194;28;7114;-72
2023/08/05 05:37:06;;;;;;;;;;;;;;;20.04;63.01;100444.47;5009066;28;6963;-73
2023/08/05 05:39:32;;;;;;;;;;;;;;;20.17;63.31;100448.06;4984176;28;6922;-72
2023/08/05 05:41:58;;;;;;;;;;;;;;;20.36;63.00;100455.16;4994683;28;7406;-73
2023/08/05 05:44:23;;;;;;;;;;;;;;;20.58;62.65;100454.47;5004341;28;6779;-75
2023/08/05 05:46:49;;;;;;;;;;;;;;;20.68;61.27;100462.38;4994336;28;7095;-73
2023/08/05 05:49:15;;;;;;;;;;;;;;;20.74;61.47;100458.06;4991582;28;6955;-74
2023/08/05 05:51:42;;;;;;;;;;;;;;;20.84;61.29;100459.03;4991966;28;6922;-73
2023/08/05 05:54:08;;;;;;;;;;;;;;;20.89;60.68;100450.41;4979852;28;7397;-73
2023/08/05 05:56:33;;;;;;;;;;;;;;;20.92;60.09;100457.38;4993823;28;7189;-74
2023/08/05 05:58:59;;;;;;;;;;;;;;;20.86;59.31;100458.19;4981872;28;6795;-73
2023/08/05 06:01:25;;;;;;;;;;;;;;;20.76;58.83;100456.34;4989543;28;6803;-73
2023/08/05 06:03:50;;;;;;;;;;;;;;;20.65;58.85;100446.72;4983253;28;7452;-73
2023/08/05 06:06:16;;;;;;;;;;;;;;;20.54;58.65;100441.44;4986874;28;7338;-73
2023/08/05 06:08:42;;;;;;;;;;;;;;;20.43;58.78;100437.91;4986168;28;8041;-73
2023/08/05 06:11:08;;;;;;;;;;;;;;;20.35;58.47;100439.56;4987443;28;6791;-72
2023/08/05 06:13:34;;;;;;;;;;;;;;;20.30;58.75;100442.13;4992222;28;6803;-73
2023/08/05 06:16:00;;;;;;;;;;;;;;;20.28;58.99;100451.66;4985139;28;7149;-73
2023/08/05 06:18:26;;;;;;;;;;;;;;;20.25;58.99;100460.31;4986926;28;6957;-73
2023/08/05 06:20:51;;;;;;;;;;;;;;;20.24;59.10;100460.28;4998172;28;7220;-73
2023/08/05 06:23:17;;;;;;;;;;;;;;;20.26;58.91;100458.56;4992385;28;7666;-73
2023/08/05 06:25:42;;;;;;;;;;;;;;;20.33;59.14;100451.66;4995826;28;7022;-73
2023/08/05 06:28:08;;;;;;;;;;;;;;;20.42;59.24;100461.31;4986488;28;6989;-73
2023/08/05 06:30:34;;;;;;;;;;;;;;;20.55;59.50;100457.94;4975422;28;7410;-73
2023/08/05 06:33:00;;;;;;;;;;;;;;;20.71;59.62;100443.28;4988675;28;6780;-73
2023/08/05 06:35:26;;;;;;;;;;;;;;;20.92;59.44;100445.19;4994497;28;7013;-73
2023/08/05 06:37:52;;;;;;;;;;;;;;;21.15;59.08;100441.88;4994880;28;6795;-74
2023/08/05 06:40:17;;;;;;;;;;;;;;;21.36;58.78;100442.81;4999883;28;6791;-73
2023/08/05 06:42:43;;;;;;;;;;;;;;;21.59;58.97;100436.81;5015191;28;6962;-73
2023/08/05 06:45:09;;;;;;;;;;;;;;;21.81;58.19;100432.56;5008145;28;6851;-73
2023/08/05 06:47:35;;;;;;;;;;;;;;;21.96;57.38;100439.53;4993736;28;7099;-71
2023/08/05 06:50:05;;;;;;;;;;;;;;;22.05;56.50;100442.16;4986680;28;7260;-72
2023/08/05 06:52:30;;;;;;;;;;;;;;;22.10;56.77;100436.94;4979871;28;7291;-72
2023/08/05 06:54:57;;;;;;;;;;;;;;;22.19;56.45;100425.63;4994903;28;6946;-73
2023/08/05 06:57:23;;;;;;;;;;;;;;;22.26;56.26;100421.28;4996943;28;7096;-70
2023/08/05 06:59:48;;;;;;;;;;;;;;;22.34;56.10;100425.63;4992167;28;6796;-71
2023/08/05 07:02:14;;;;;;;;;;;;;;;22.41;55.82;100423.88;4990870;28;6970;-71
2023/08/05 07:04:39;;;;;;;;;;;;;;;22.54;56.27;100422.16;4984935;28;6801;-71
2023/08/05 07:07:05;;;;;;;;;;;;;;;22.64;55.38;100424.78;4994872;28;7243;-71
2023/08/05 07:09:31;;;;;;;;;;;;;;;22.73;55.13;100414.31;4995203;28;6856;-71
2023/08/05 07:11:57;;;;;;;;;;;;;;;22.79;54.60;100408.19;5005695;28;6791;-71
2023/08/05 07:14:22;;;;;;;;;;;;;;;22.85;54.84;100393.38;4985175;28;6961;-70
2023/08/05 07:16:48;;;;;;;;;;;;;;;22.95;54.79;100409.91;4992506;28;7218;-71
2023/08/05 07:19:13;;;;;;;;;;;;;;;23.07;54.73;100392.44;4991710;28;6784;-70
2023/08/05 07:21:39;;;;;;;;;;;;;;;23.21;54.23;100405.44;4995707;28;6828;-71
2023/08/05 07:24:04;;;;;;;;;;;;;;;23.26;53.21;100401.94;4994217;28;6922;-70
2023/08/05 07:26:30;;;;;;;;;;;;;;;23.29;53.04;100396.72;4986148;28;7208;-71
2023/08/05 07:28:55;;;;;;;;;;;;;;;23.31;52.95;100394.09;5002401;28;7148;-70
2023/08/05 07:31:21;;;;;;;;;;;;;;;23.31;52.79;100399.34;4992336;28;6866;-70
2023/08/05 07:33:46;;;;;;;;;;;;;;;23.31;52.82;100407.16;5001858;28;6950;-71
2023/08/05 07:36:15;;;;;;;;;;;;;;;23.37;52.64;100399.31;4985752;28;7001;-71
2023/08/05 07:38:42;;;;;;;;;;;;;;;23.51;53.06;100390.50;4991902;28;6815;-71
2023/08/05 07:41:08;;;;;;;;;;;;;;;23.66;53.41;100387.81;4994688;28;7262;-71
2023/08/05 07:43:36;;;;;;;;;;;;;;;23.78;52.43;100372.91;4975737;28;7004;-71
2023/08/05 07:46:06;;;;;;;;;;;;;;;23.84;52.13;100373.72;4987838;28;7015;-71
2023/08/05 07:48:35;;;;;;;;;;;;;;;23.89;51.78;100371.06;4987651;28;7232;-71
2023/08/05 07:51:06;;;;;;;;;;;;;;;23.92;51.10;100359.72;4971905;28;7032;-71
2023/08/05 07:53:37;;;;;;;;;;;;;;;23.99;51.23;100356.13;4985619;28;6820;-70
2023/08/05 07:56:13;;;;;;;;;;;;;;;24.07;50.64;100362.22;4987262;28;6816;-71
2023/08/05 07:58:42;;;;;;;;;;;;;;;24.16;51.00;100357.78;4980579;28;7300;-71
2023/08/05 08:01:08;;;;;;;;;;;;;;;24.26;51.04;100357.69;4985136;28;7046;-70
2023/08/05 08:03:34;;;;;;;;;;;;;;;24.36;50.30;100355.00;4985489;28;6860;-70
2023/08/05 08:05:59;;;;;;;;;;;;;;;24.45;50.09;100360.13;4975977;28;7278;-71
2023/08/05 08:08:25;;;;;;;;;;;;;;;24.62;49.74;100345.97;4989135;28;7321;-71
2023/08/05 08:10:50;;;;;;;;;;;;;;;24.69;49.50;100347.66;4971653;28;7208;-71
2023/08/05 08:13:16;;;;;;;;;;;;;;;24.82;49.35;100349.28;4991036;28;7086;-71
2023/08/05 08:15:41;;;;;;;;;;;;;;;24.97;49.57;100344.72;4995468;28;6792;-70
2023/08/05 08:18:07;;;;;;;;;;;;;;;25.11;49.67;100336.69;4988582;28;8310;-71
2023/08/05 08:20:32;;;;;;;;;;;;;;;25.24;48.95;100342.63;4986521;28;6791;-70
2023/08/05 08:22:58;;;;;;;;;;;;;;;25.30;48.24;100337.31;5003984;28;7474;-70
2023/08/05 08:25:23;;;;;;;;;;;;;;;25.34;47.83;100331.13;4989401;28;7271;-72
2023/08/05 08:27:49;;;;;;;;;;;;;;;25.33;47.81;100333.75;4992983;28;6882;-70
2023/08/05 08:30:14;;;;;;;;;;;;;;;25.32;47.56;100327.66;4991170;28;6967;-71
2023/08/05 08:32:40;;;;;;;;;;;;;;;25.30;47.77;100318.94;4988648;28;6968;-71
2023/08/05 08:35:05;;;;;;;;;;;;;;;25.29;47.42;100311.94;4986320;28;7296;-71
2023/08/05 08:37:31;;;;;;;;;;;;;;;25.30;47.10;100313.72;4992020;28;7702;-71
2023/08/05 08:39:56;;;;;;;;;;;;;;;25.30;46.19;100308.47;4983255;28;6799;-71
2023/08/05 08:42:25;;;;;;;;;;;;;;;25.31;46.15;100310.19;5005964;28;6932;-71
2023/08/05 08:44:52;;;;;;;;;;;;;;;25.41;46.43;100296.94;4980955;28;7010;-70
2023/08/05 08:47:18;;;;;;;;;;;;;;;25.59;45.77;100296.69;4988872;28;7090;-70
2023/08/05 08:49:46;;;;;;;;;;;;;;;25.68;44.54;100293.03;4992689;28;6791;-70
2023/08/05 08:52:14;;;;;;;;;;;;;;;25.74;44.92;100278.94;4999915;28;7000;-71
2023/08/05 08:54:40;;;;;;;;;;;;;;;25.89;44.77;100275.19;4980421;28;6799;-70
2023/08/05 08:57:06;;;;;;;;;;;;;;;26.05;44.39;100281.91;4992949;28;7189;-70
2023/08/05 08:59:32;;;;;;;;;;;;;;;26.23;43.37;100287.72;4998701;28;7188;-71
2023/08/05 09:01:59;;;;;;;;;;;;;;;26.42;42.85;100267.22;4994344;28;6808;-73
2023/08/05 09:04:28;;;;;;;;;;;;;;;26.61;42.86;100261.59;4970633;28;7210;-74
2023/08/05 09:06:55;;;;;;;;;;;;;;;26.81;42.40;100258.53;4978403;28;7293;-74
2023/08/05 09:09:20;;;;;;;;;;;;;;;26.98;41.97;100258.19;4970783;28;6952;-72
2023/08/05 09:11:46;;;;;;;;;;;;;;;27.12;41.42;100244.72;4998352;28;7110;-72
2023/08/05 09:14:14;;;;;;;;;;;;;;;27.26;41.39;100257.53;4999228;28;6775;-72
2023/08/05 09:17:00;;;;;;;;;;;;;;;27.51;41.58;100245.56;4997560;28;6812;-72
2023/08/05 09:19:29;;;;;;;;;;;;;;;27.75;40.85;100244.09;5000850;28;6849;-72
2023/08/05 09:21:55;;;;;;;;;;;;;;;28.01;40.58;100229.38;4983081;28;6986;-72
2023/08/05 09:24:22;;;;;;;;;;;;;;;28.20;39.31;100239.41;4982899;28;7155;-72
2023/08/05 09:26:54;;;;;;;;;;;;;;;28.20;38.76;100228.88;4995832;28;6931;-73
2023/08/05 09:29:21;;;;;;;;;;;;;;;28.02;39.03;100223.19;4999154;28;6807;-73
2023/08/05 09:32:01;;;;;;;;;;;;;;;27.82;39.28;100226.38;4997984;28;7261;-72
2023/08/05 09:34:37;;;;;;;;;;;;;;;27.60;39.38;100226.94;4991197;28;6834;-72
2023/08/05 09:37:05;;;;;;;;;;;;;;;27.43;39.54;100212.41;4995844;28;6955;-72
2023/08/05 09:39:48;;;;;;;;;;;;;;;27.39;40.04;100204.63;4992616;28;6835;-72
2023/08/05 09:42:19;;;;;;;;;;;;;;;27.45;39.82;100209.75;4989243;28;6949;-72
2023/08/05 09:44:45;;;;;;;;;;;;;;;27.66;40.54;100203.06;4995881;28;8054;-72
2023/08/05 09:47:21;;;;;;;;;;;;;;;27.95;40.16;100197.94;4992426;28;7186;-71
2023/08/05 09:49:50;;;;;;;;;;;;;;;28.32;39.76;100193.41;4978160;28;7017;-72
2023/08/05 09:52:17;;;;;;;;;;;;;;;28.59;38.90;100190.84;4995257;28;6843;-72
2023/08/05 09:54:57;;;;;;;;;;;;;;;28.79;38.40;100180.56;4997511;28;7070;-72
2023/08/05 09:57:24;;;;;;;;;;;;;;;29.00;38.77;100178.16;4995900;28;6819;-71
2023/08/05 09:59:53;;;;;;;;;;;;;;;29.18;37.79;100171.44;4995847;28;6807;-71
2023/08/05 10:02:24;;;;;;;;;;;;;;;29.27;37.77;100180.81;4990867;28;6938;-72
2023/08/05 10:04:53;;;;;;;;;;;;;;;29.23;37.22;100174.78;4988716;28;6978;-73
2023/08/05 10:07:23;;;;;;;;;;;;;;;29.20;38.24;100180.16;4994438;28;6978;-72
2023/08/05 10:09:50;;;;;;;;;;;;;;;29.18;37.80;100176.72;4994045;28;6803;-74
2023/08/05 10:12:26;;;;;;;;;;;;;;;29.05;37.30;100168.34;4976336;28;7382;-72
2023/08/05 10:14:56;;;;;;;;;;;;;;;28.85;38.08;100168.97;4993991;28;6865;-73
2023/08/05 10:17:22;;;;;;;;;;;;;;;28.61;38.24;100168.81;4980023;28;7054;-72
2023/08/05 10:19:50;;;;;;;;;;;;;;;28.34;37.71;100163.47;4994532;28;6865;-72
2023/08/05 10:22:24;;;;;;;;;;;;;;;28.04;38.79;100163.44;4994908;28;6871;-72
2023/08/05 10:24:57;;;;;;;;;;;;;;;27.82;38.27;100165.81;4989694;28;7011;-72
2023/08/05 10:27:36;;;;;;;;;;;;;;;27.68;39.43;100153.91;4995981;28;6811;-73
2023/08/05 10:30:10;;;;;;;;;;;;;;;27.75;39.87;100149.31;4998365;28;6812;-72
2023/08/05 10:32:53;;;;;;;;;;;;;;;27.84;39.10;100143.81;4980000;28;11917;-72
2023/08/05 10:35:39;;;;;;;;;;;;;;;27.99;39.23;100133.72;4994084;28;7028;-72
2023/08/05 10:38:18;;;;;;;;;;;;;;;28.12;38.94;100135.13;4980762;28;7088;-73
2023/08/05 10:40:43;;;;;;;;;;;;;;;28.23;38.98;100140.06;4972075;28;7231;-72
2023/08/05 10:43:10;;;;;;;;;;;;;;;28.28;38.60;100132.91;4998577;28;7382;-73
2023/08/05 10:45:42;;;;;;;;;;;;;;;28.23;38.10;100132.16;4998196;28;6807;-73
2023/08/05 10:48:09;;;;;;;;;;;;;;;28.13;38.34;100130.69;4975444;28;6986;-72
2023/08/05 10:50:37;;;;;;;;;;;;;;;28.05;38.60;100123.03;4989011;28;6816;-72
2023/08/05 10:53:07;;;;;;;;;;;;;;;28.10;38.58;100112.34;4993179;28;7215;-72
2023/08/05 10:55:45;;;;;;;;;;;;;;;28.17;37.98;100113.03;4993658;28;7070;-73
2023/08/05 10:58:11;;;;;;;;;;;;;;;28.18;37.72;100106.84;5009315;28;7052;-72
2023/08/05 11:00:41;;;;;;;;;;;;;;;28.16;37.34;100096.38;4991175;28;6815;-69
2023/08/05 11:03:32;;;;;;;;;;;;;;;28.08;37.46;100093.94;4997344;28;6800;-70
2023/08/05 11:06:02;;;;;;;;;;;;;;;28.27;38.36;100090.78;4994288;28;6816;-70
2023/08/05 11:08:31;;;;;;;;;;;;;;;28.80;38.22;100086.50;4990726;28;8257;-71
2023/08/05 11:11:00;;;;;;;;;;;;;;;29.15;37.79;100079.19;4994658;28;7859;-70
2023/08/05 11:13:25;;;;;;;;;;;;;;;29.07;37.65;100070.66;4992726;28;7443;-71
2023/08/05 11:16:13;;;;;;;;;;;;;;;28.76;37.71;100077.84;4977944;28;7067;-71
2023/08/05 11:18:41;;;;;;;;;;;;;;;28.27;37.07;100093.44;4998493;28;7010;-70
2023/08/05 11:21:09;;;;;;;;;;;;;;;27.51;38.05;100112.19;5001509;28;7011;-71
2023/08/05 11:23:39;;;;;;;;;;;;;;;26.24;39.52;100108.25;4994582;28;6838;-71
2023/08/05 11:26:06;;;;;;;;;;;;;;;25.02;41.97;100116.59;4988842;28;6958;-72
2023/08/05 11:28:32;;;;;;;;;;;;;;;24.11;43.68;100110.03;4983593;28;6819;-72
2023/08/05 11:31:00;;;;;;;;;;;;;;;23.51;46.56;100108.91;4991835;28;6847;-71
2023/08/05 11:33:26;;;;;;;;;;;;;;;23.22;47.53;100096.09;5009103;28;6823;-71
2023/08/05 11:35:53;;;;;;;;;;;;;;;23.23;48.80;100090.00;4987998;28;6932;-72
2023/08/05 11:38:20;;;;;;;;;;;;;;;23.41;49.96;100084.63;4992765;28;7006;-72
2023/08/05 11:40:49;;;;;;;;;;;;;;;23.59;49.87;100074.84;4986503;28;6824;-71
2023/08/05 11:43:16;;;;;;;;;;;;;;;23.75;49.96;100079.88;4987849;28;7289;-73
2023/08/05 11:45:42;;;;;;;;;;;;;;;23.98;50.85;100066.50;4993133;28;6792;-73
2023/08/05 11:48:23;;;;;;;;;;;;;;;24.42;50.68;100072.06;4985202;28;7513;-73
2023/08/05 11:50:51;;;;;;;;;;;;;;;24.74;49.40;100051.50;4991786;28;6933;-71
2023/08/05 11:53:18;;;;;;;;;;;;;;;25.23;49.33;100047.19;4996657;28;7420;-73
2023/08/05 11:55:44;;;;;;;;;;;;;;;25.71;48.68;100051.53;4986796;28;7771;-71
2023/08/05 11:58:11;;;;;;;;;;;;;;;26.06;47.48;100052.56;4974776;28;10227;-71
2023/08/05 12:00:43;;;;;;;;;;;;;;;26.23;46.60;100048.75;4985178;28;7185;-71
2023/08/05 12:03:09;;;;;;;;;;;;;;;26.28;46.35;100043.38;4991127;28;6812;-72
2023/08/05 12:05:35;;;;;;;;;;;;;;;26.24;45.90;100054.84;5003469;28;6966;-72
2023/08/05 12:08:00;;;;;;;;;;;;;;;26.15;45.64;100051.47;4990571;28;6981;-72
2023/08/05 12:10:27;;;;;;;;;;;;;;;26.03;46.15;100052.63;4992453;28;7055;-73
2023/08/05 12:12:53;;;;;;;;;;;;;;;25.95;45.96;100048.44;4987995;28;6938;-72
2023/08/05 12:15:25;;;;;;;;;;;;;;;25.81;45.61;100061.84;4977856;28;6988;-72
2023/08/05 12:17:55;;;;;;;;;;;;;;;25.61;45.34;100058.75;4990013;28;6815;-71
2023/08/05 12:20:24;;;;;;;;;;;;;;;25.42;45.18;100059.97;4991214;28;6827;-72
2023/08/05 12:22:50;;;;;;;;;;;;;;;25.23;45.32;100060.31;4984948;28;7122;-72
2023/08/05 12:25:15;;;;;;;;;;;;;;;25.18;45.44;100062.13;4970842;28;7089;-72
2023/08/05 12:27:41;;;;;;;;;;;;;;;25.20;45.96;100050.75;4992428;28;6791;-70
2023/08/05 12:30:08;;;;;;;;;;;;;;;25.24;45.60;100052.41;4972076;28;7217;-72
2023/08/05 12:32:34;;;;;;;;;;;;;;;25.18;44.92;100063.03;4975157;28;6815;-72
2023/08/05 12:35:04;;;;;;;;;;;;;;;25.02;44.99;100057.19;4980916;28;6814;-72
2023/08/05 12:37:30;;;;;;;;;;;;;;;24.78;44.58;100058.47;4990031;28;6895;-71
2023/08/05 12:39:55;;;;;;;;;;;;;;;24.50;44.85;100054.47;4997480;28;7027;-70
2023/08/05 12:42:21;;;;;;;;;;;;;;;24.22;45.15;100059.28;5004692;28;6840;-71
2023/08/05 12:44:46;;;;;;;;;;;;;;;23.99;45.09;100049.94;4992262;28;6795;-73
2023/08/05 12:47:12;;;;;;;;;;;;;;;23.79;45.30;100051.03;4988036;28;6951;-75